Time;durP1;ratioP1;P1;durP2;ratioP2;P2;SDS_P1;SDS_P2;PMS_P1;PMS_P2;Temp;Humidity;BMP_temperature;BMP_pressure;BME280_temperature;BME280_humidity;BME280_pressure;Samples;Min_cycle;Max_cycle;Signal;HPM_P1;HPM_P2
2022/03/06 00:00:40;;;;;;;7.40;3.10;;;;;;;-0.05;46.87;100013.44;4933425;29;20047;-78
2022/03/06 00:03:07;;;;;;;6.68;3.15;;;;;;;-0.09;47.00;100018.38;4927505;29;20043;-76
2022/03/06 00:05:33;;;;;;;6.50;3.40;;;;;;;-0.14;46.78;100012.22;4934237;29;20098;-79
2022/03/06 00:07:59;;;;;;;5.82;3.38;;;;;;;-0.25;46.81;100014.38;4954569;29;20093;-78
2022/03/06 00:10:28;;;;;;;5.75;2.90;;;;;;;-0.34;47.09;100013.22;4956058;29;20545;-80
2022/03/06 00:12:55;;;;;;;6.03;3.05;;;;;;;-0.39;46.92;100019.84;4954834;29;20094;-78
2022/03/06 00:15:22;;;;;;;4.28;2.75;;;;;;;-0.61;47.50;99984.88;4923550;29;20125;-79
2022/03/06 00:17:49;;;;;;;5.80;3.10;;;;;;;-0.50;47.42;100004.06;4941781;29;20039;-79
2022/03/06 00:20:16;;;;;;;6.85;3.40;;;;;;;-0.67;47.77;99972.72;4929180;29;20071;-79
2022/03/06 00:22:42;;;;;;;5.70;2.92;;;;;;;-0.55;47.61;99999.59;4955161;29;20110;-78
2022/03/06 00:25:09;;;;;;;6.63;3.22;;;;;;;-0.63;47.55;100010.38;4949770;29;20125;-79
2022/03/06 00:27:35;;;;;;;8.20;3.55;;;;;;;-0.85;47.84;99997.56;4963550;29;20548;-78
2022/03/06 00:30:02;;;;;;;6.00;3.53;;;;;;;-0.87;47.70;100005.16;4934017;29;20097;-79
2022/03/06 00:32:29;;;;;;;5.05;2.72;;;;;;;-0.85;47.52;100018.84;4933147;29;20051;-77
2022/03/06 00:34:55;;;;;;;7.63;3.05;;;;;;;-0.90;48.01;100010.16;4912046;29;20377;-78
2022/03/06 00:37:22;;;;;;;5.97;2.90;;;;;;;-0.99;48.08;100002.97;4933353;29;20167;-79
2022/03/06 00:39:48;;;;;;;6.53;2.97;;;;;;;-1.13;48.45;99989.66;4933379;29;20046;-78
2022/03/06 00:42:14;;;;;;;6.70;3.60;;;;;;;-1.08;48.64;99997.50;4914881;29;20413;-78
2022/03/06 00:44:40;;;;;;;5.78;3.17;;;;;;;-1.16;48.48;99986.06;4935099;29;20046;-78
2022/03/06 00:47:06;;;;;;;4.90;2.92;;;;;;;-1.09;48.50;100003.41;4934029;29;20051;-78
2022/03/06 00:49:34;;;;;;;5.47;3.03;;;;;;;-1.12;48.38;100014.38;4923719;29;20118;-79
2022/03/06 00:52:00;;;;;;;9.90;3.60;;;;;;;-1.21;48.79;100002.06;4954029;29;20830;-80
2022/03/06 00:54:28;;;;;;;9.23;3.65;;;;;;;-1.30;48.91;100011.91;4921404;29;20059;-79
2022/03/06 00:56:54;;;;;;;6.60;3.72;;;;;;;-1.66;48.67;99958.50;4952489;29;20053;-78
2022/03/06 00:59:20;;;;;;;4.82;2.88;;;;;;;-1.50;49.08;99999.97;4941218;29;20093;-78
2022/03/06 01:01:47;;;;;;;5.55;3.40;;;;;;;-1.53;49.42;99996.50;4952874;29;20027;-78
2022/03/06 01:04:12;;;;;;;5.35;2.80;;;;;;;-1.70;49.10;99979.56;4938889;29;20131;-77
2022/03/06 01:06:38;;;;;;;5.97;3.00;;;;;;;-1.73;49.17;100007.50;4945761;29;20470;-80
2022/03/06 01:09:05;;;;;;;5.80;3.33;;;;;;;-1.81;49.77;100004.63;4950066;29;20131;-79
2022/03/06 01:11:33;;;;;;;4.68;2.80;;;;;;;-1.92;50.17;99986.28;4917185;29;20489;-79
2022/03/06 01:13:59;;;;;;;5.63;2.60;;;;;;;-1.92;50.03;99996.50;4916011;29;20042;-78
2022/03/06 01:16:25;;;;;;;6.88;2.75;;;;;;;-1.93;50.37;100004.06;4932322;29;20047;-79
2022/03/06 01:18:51;;;;;;;4.57;2.50;;;;;;;-2.14;50.15;99982.78;4932280;29;20047;-79
2022/03/06 01:21:17;;;;;;;5.05;2.50;;;;;;;-2.29;50.26;99964.22;4932102;29;20035;-80
2022/03/06 01:23:43;;;;;;;5.40;2.40;;;;;;;-2.24;50.42;99993.34;4932333;29;20042;-79
2022/03/06 01:26:09;;;;;;;4.75;2.83;;;;;;;-2.24;50.60;100003.53;4915381;29;20672;-79
2022/03/06 01:28:35;;;;;;;5.63;2.72;;;;;;;-2.31;50.96;99994.75;4935085;29;20047;-79
2022/03/06 01:31:01;;;;;;;5.82;2.83;;;;;;;-2.26;50.96;100002.59;4934575;29;20054;-80
2022/03/06 01:33:27;;;;;;;7.25;2.83;;;;;;;-2.33;50.94;99992.94;4931516;29;20046;-80
2022/03/06 01:35:53;;;;;;;5.38;2.72;;;;;;;-2.37;50.72;99999.56;4916444;29;20556;-79
2022/03/06 01:38:20;;;;;;;5.18;2.63;;;;;;;-2.43;51.42;99996.75;4932065;29;20932;-78
2022/03/06 01:40:46;;;;;;;4.70;2.60;;;;;;;-2.62;51.34;99978.00;4917494;29;20042;-77
2022/03/06 01:43:12;;;;;;;6.72;2.55;;;;;;;-2.56;51.72;99992.75;4933046;29;20460;-78
2022/03/06 01:45:40;;;;;;;3.95;2.33;;;;;;;-2.62;51.78;99988.22;4955027;29;20129;-80
2022/03/06 01:48:09;;;;;;;4.75;2.38;;;;;;;-2.64;51.62;99991.50;4950432;29;20047;-79
2022/03/06 01:50:37;;;;;;;4.68;2.38;;;;;;;-2.72;51.79;99996.22;4916518;29;20063;-79
2022/03/06 01:53:06;;;;;;;7.00;2.50;;;;;;;-2.89;52.23;99964.84;4930877;29;20049;-78
2022/03/06 01:55:33;;;;;;;5.20;2.35;;;;;;;-2.70;51.92;99996.28;4915545;29;20182;-78
2022/03/06 01:58:03;;;;;;;4.45;2.65;;;;;;;-2.73;52.35;99995.34;4948994;29;20544;-78
2022/03/06 02:00:32;;;;;;;3.90;2.33;;;;;;;-2.74;52.07;99998.69;4916542;29;20509;-79
2022/03/06 02:02:59;;;;;;;4.38;2.40;;;;;;;-2.81;52.42;99989.03;4929618;29;20039;-78
2022/03/06 02:05:25;;;;;;;5.35;2.50;;;;;;;-2.76;52.49;100001.97;4930539;29;20043;-78
2022/03/06 02:07:52;;;;;;;4.35;2.33;;;;;;;-2.84;52.54;100004.16;4912035;29;20641;-79
2022/03/06 02:10:18;;;;;;;3.83;2.60;;;;;;;-2.97;52.76;99991.59;4915680;29;20035;-78
2022/03/06 02:12:46;;;;;;;3.60;2.47;;;;;;;-2.95;52.94;99997.66;4949598;28;20043;-77
2022/03/06 02:15:15;;;;;;;6.05;2.20;;;;;;;-2.89;52.90;100003.06;4916697;29;20048;-78
2022/03/06 02:17:41;;;;;;;4.57;2.20;;;;;;;-2.92;52.73;99995.25;4916162;29;20050;-78
2022/03/06 02:20:17;;;;;;;6.65;3.17;;;;;;;-2.93;53.07;100004.59;4922407;29;20031;-78
2022/03/06 02:22:46;;;;;;;4.57;2.50;;;;;;;-2.97;52.95;99996.69;4940514;29;20409;-80
2022/03/06 02:25:17;;;;;;;4.95;2.40;;;;;;;-3.03;53.34;99990.53;4945298;29;20070;-77
2022/03/06 02:27:43;;;;;;;4.00;2.28;;;;;;;-3.13;53.37;99972.19;4962393;29;20047;-78
2022/03/06 02:30:14;;;;;;;4.07;2.25;;;;;;;-3.09;53.37;99979.19;4934053;29;20066;-79
2022/03/06 02:32:40;;;;;;;4.30;2.33;;;;;;;-3.15;53.33;99982.28;4932085;29;20070;-79
2022/03/06 02:35:08;;;;;;;4.60;2.40;;;;;;;-3.12;53.91;99969.69;4949727;29;20521;-78
2022/03/06 02:37:34;;;;;;;5.28;2.40;;;;;;;-3.18;54.07;99972.84;4955485;29;20046;-78
2022/03/06 02:40:03;;;;;;;6.35;2.15;;;;;;;-3.18;53.94;99984.66;4915882;29;20051;-77
2022/03/06 02:42:35;;;;;;;5.28;2.65;;;;;;;-3.22;53.79;99980.25;4930893;29;20190;-78
2022/03/06 02:45:08;;;;;;;4.28;2.45;;;;;;;-3.20;53.89;99982.06;4931647;29;20035;-79
2022/03/06 02:47:34;;;;;;;4.90;2.20;;;;;;;-3.24;53.80;99969.13;4932425;29;20126;-78
2022/03/06 02:50:02;;;;;;;6.15;2.63;;;;;;;-3.28;53.68;99973.16;4930810;29;20169;-79
2022/03/06 02:52:29;;;;;;;8.60;3.00;;;;;;;-3.43;53.84;99958.03;4931432;29;20047;-78
2022/03/06 02:54:55;;;;;;;6.93;2.53;;;;;;;-3.29;54.45;99985.81;4948762;29;20039;-79
2022/03/06 02:57:21;;;;;;;6.00;2.65;;;;;;;-3.33;54.14;99989.91;4931131;29;20151;-78
2022/03/06 02:59:47;;;;;;;4.75;2.22;;;;;;;-3.33;54.08;99984.81;4948652;29;20031;-79
2022/03/06 03:02:13;;;;;;;4.18;2.30;;;;;;;-3.41;54.35;99984.41;4928501;29;20039;-79
2022/03/06 03:04:39;;;;;;;4.97;2.80;;;;;;;-3.37;54.77;99985.44;4930624;29;20039;-78
2022/03/06 03:07:07;;;;;;;6.35;2.55;;;;;;;-3.44;54.18;99979.19;4930707;29;20043;-78
2022/03/06 03:09:34;;;;;;;5.45;2.58;;;;;;;-3.48;54.16;99978.13;4939632;29;20619;-79
2022/03/06 03:12:01;;;;;;;4.63;2.53;;;;;;;-3.48;54.50;99984.91;4947812;29;20106;-77
2022/03/06 03:14:31;;;;;;;4.95;2.17;;;;;;;-3.43;54.67;99980.94;4931178;29;20050;-77
2022/03/06 03:17:01;;;;;;;5.50;2.40;;;;;;;-3.49;54.49;99978.06;4915009;29;20051;-78
2022/03/06 03:19:27;;;;;;;5.97;2.50;;;;;;;-3.49;54.26;99975.53;4936794;29;20042;-78
2022/03/06 03:21:53;;;;;;;3.78;2.47;;;;;;;-3.47;54.48;99989.19;4948142;29;20031;-78
2022/03/06 03:24:19;;;;;;;7.22;2.70;;;;;;;-3.65;54.98;99950.97;4911022;29;20038;-78
2022/03/06 03:26:45;;;;;;;6.63;2.72;;;;;;;-3.46;55.01;99977.34;4936177;29;20050;-80
2022/03/06 03:29:11;;;;;;;8.07;3.15;;;;;;;-3.57;54.91;99961.53;4956092;29;20473;-79
2022/03/06 03:31:37;;;;;;;6.38;2.80;;;;;;;-3.42;55.15;99976.69;4916249;29;20139;-77
2022/03/06 03:34:03;;;;;;;6.28;2.55;;;;;;;-3.45;55.23;99962.16;4949831;28;20046;-78
2022/03/06 03:36:30;;;;;;;5.20;2.65;;;;;;;-3.44;54.85;99971.53;4918420;29;20043;-77
2022/03/06 03:38:56;;;;;;;4.88;2.45;;;;;;;-3.50;55.20;99953.41;4914332;29;20046;-79
2022/03/06 03:41:23;;;;;;;4.78;2.58;;;;;;;-3.43;55.37;99962.22;4928119;29;20035;-78
2022/03/06 03:43:49;;;;;;;5.63;2.90;;;;;;;-3.42;55.17;99963.97;4933349;29;20036;-77
2022/03/06 03:46:15;;;;;;;7.78;2.63;;;;;;;-3.62;55.11;99940.94;4952522;29;20039;-78
2022/03/06 03:48:41;;;;;;;13.20;4.28;;;;;;;-3.56;54.93;99943.81;4933334;29;20413;-78
2022/03/06 03:51:08;;;;;;;13.15;6.13;;;;;;;-3.59;55.04;99927.50;4912931;29;20066;-78
2022/03/06 03:53:34;;;;;;;7.57;3.97;;;;;;;-3.64;54.59;99935.78;4932888;29;20054;-78
2022/03/06 03:56:00;;;;;;;10.95;3.72;;;;;;;-3.61;54.61;99945.25;4933258;29;20304;-79
2022/03/06 03:58:26;;;;;;;7.60;3.08;;;;;;;-3.78;54.86;99929.13;4934817;29;20047;-78
2022/03/06 04:00:55;;;;;;;6.45;2.75;;;;;;;-3.66;55.24;99942.47;4937014;29;20062;-78
2022/03/06 04:03:21;;;;;;;9.40;2.80;;;;;;;-3.75;55.16;99936.06;4936117;29;20055;-78
2022/03/06 04:05:48;;;;;;;7.20;2.40;;;;;;;-3.73;55.29;99950.59;4967446;29;20129;-79
2022/03/06 04:08:14;;;;;;;5.25;2.45;;;;;;;-3.81;54.94;99944.22;4940873;29;20046;-77
2022/03/06 04:10:40;;;;;;;5.60;2.55;;;;;;;-3.73;55.11;99954.78;4936963;29;20047;-78
2022/03/06 04:13:06;;;;;;;6.28;2.70;;;;;;;-3.73;55.30;99942.94;4956389;29;20043;-78
2022/03/06 04:15:33;;;;;;;6.22;3.25;;;;;;;-3.76;55.12;99940.25;4937287;29;20066;-78
2022/03/06 04:17:59;;;;;;;8.40;3.55;;;;;;;-3.75;55.22;99938.59;4920809;29;20078;-79
2022/03/06 04:20:25;;;;;;;5.65;3.28;;;;;;;-3.75;55.43;99939.44;4915559;29;20035;-79
2022/03/06 04:22:51;;;;;;;10.07;3.20;;;;;;;-3.78;55.27;99940.19;4917654;29;20344;-78
2022/03/06 04:25:17;;;;;;;5.60;2.80;;;;;;;-3.72;54.96;99943.81;4933570;29;20086;-77
2022/03/06 04:27:43;;;;;;;5.38;2.72;;;;;;;-3.81;55.60;99919.69;4952456;29;20043;-79
2022/03/06 04:30:10;;;;;;;9.70;3.42;;;;;;;-3.59;55.06;99938.56;4950587;29;20429;-79
2022/03/06 04:32:37;;;;;;;8.52;3.40;;;;;;;-3.48;54.91;99926.38;4951470;29;20043;-79
2022/03/06 04:35:07;;;;;;;11.93;3.65;;;;;;;-3.37;55.04;99930.31;4950471;28;20097;-78
2022/03/06 04:37:34;;;;;;;9.50;3.75;;;;;;;-3.21;54.87;99926.84;4949758;29;20074;-79
2022/03/06 04:40:00;;;;;;;7.57;3.60;;;;;;;-3.23;54.59;99914.84;4932708;29;20039;-79
2022/03/06 04:42:26;;;;;;;12.90;3.67;;;;;;;-2.91;54.83;99916.41;4932020;29;20418;-77
2022/03/06 04:44:52;;;;;;;12.15;3.60;;;;;;;-2.28;54.76;99923.50;4932400;29;20046;-80
2022/03/06 04:47:18;;;;;;;7.70;3.63;;;;;;;-1.05;54.21;99923.53;4932447;29;20050;-79
2022/03/06 04:49:43;;;;;;;9.13;4.20;;;;;;;0.10;53.09;99913.31;4929823;29;20137;-78
2022/03/06 04:52:09;;;;;;;9.88;4.28;;;;;;;1.22;51.54;99921.22;4915973;29;20035;-78
2022/03/06 04:54:35;;;;;;;8.38;4.25;;;;;;;2.12;50.90;99891.31;4916413;29;20058;-80
2022/03/06 04:57:01;;;;;;;8.43;3.85;;;;;;;2.98;48.84;99882.31;4930900;29;20047;-78
2022/03/06 04:59:27;;;;;;;11.20;4.18;;;;;;;3.86;47.96;99878.16;4931874;29;20043;-80
2022/03/06 05:01:54;;;;;;;9.10;3.92;;;;;;;4.52;46.34;99870.78;4932087;29;20035;-80
2022/03/06 05:04:21;;;;;;;9.88;4.35;;;;;;;5.22;44.81;99868.41;4932208;29;20142;-79
2022/03/06 05:06:48;;;;;;;9.63;3.97;;;;;;;5.87;43.60;99890.75;4916821;29;20039;-79
2022/03/06 05:09:14;;;;;;;8.57;3.67;;;;;;;6.40;42.43;99878.41;4933724;29;20047;-77
2022/03/06 05:11:40;;;;;;;10.43;4.55;;;;;;;6.85;41.31;99878.81;4932466;29;20039;-79
2022/03/06 05:14:06;;;;;;;16.95;5.80;;;;;;;7.37;40.48;99867.06;4963177;29;20047;-78
2022/03/06 05:16:32;;;;;;;11.88;4.45;;;;;;;8.13;39.19;99875.97;4929932;29;20129;-79
2022/03/06 05:18:59;;;;;;;9.30;4.75;;;;;;;8.42;38.15;99853.53;4955958;28;20627;-81
2022/03/06 05:21:26;;;;;;;14.07;5.07;;;;;;;9.18;37.33;99849.19;4952910;29;20035;-80
2022/03/06 05:23:52;;;;;;;12.00;4.90;;;;;;;9.89;36.09;99855.00;4932868;29;20050;-77
2022/03/06 05:26:18;;;;;;;13.05;5.18;;;;;;;10.33;34.93;99863.38;4931745;29;20101;-78
2022/03/06 05:28:44;;;;;;;15.52;6.20;;;;;;;10.91;34.08;99861.25;4932662;29;20456;-81
2022/03/06 05:31:10;;;;;;;13.60;5.65;;;;;;;11.43;33.21;99865.91;4935204;29;20039;-79
2022/03/06 05:33:37;;;;;;;13.48;5.05;;;;;;;11.97;32.22;99848.72;4949198;28;20168;-78
2022/03/06 05:36:04;;;;;;;14.38;5.15;;;;;;;12.46;31.59;99854.16;4914614;29;20065;-78
2022/03/06 05:38:30;;;;;;;13.80;5.82;;;;;;;13.00;30.61;99853.25;4949831;29;20142;-77
2022/03/06 05:40:57;;;;;;;11.02;4.93;;;;;;;13.49;29.83;99848.84;4932036;29;20506;-77
2022/03/06 05:43:25;;;;;;;14.20;5.22;;;;;;;14.04;28.73;99853.78;4931611;29;20070;-78
2022/03/06 05:46:02;;;;;;;12.38;5.28;;;;;;;14.24;27.55;99810.59;4942026;29;20085;-78
2022/03/06 05:48:40;;;;;;;11.40;4.88;;;;;;;15.41;27.69;99832.06;4949068;28;20053;-77
2022/03/06 05:51:06;;;;;;;11.90;4.88;;;;;;;16.38;27.00;99850.19;4943526;29;20103;-78
2022/03/06 05:53:35;;;;;;;12.55;5.03;;;;;;;17.31;25.96;99827.81;4950236;29;20443;-77
2022/03/06 05:56:09;;;;;;;19.58;5.72;;;;;;;18.31;24.63;99825.78;4931751;29;20065;-78
2022/03/06 05:58:35;;;;;;;17.02;5.88;;;;;;;18.86;24.05;99808.59;4911605;29;20051;-76
2022/03/06 06:01:01;;;;;;;13.82;5.63;;;;;;;19.30;23.55;99826.03;4930438;29;20039;-76
2022/03/06 06:03:27;;;;;;;17.08;6.70;;;;;;;19.33;23.00;99810.06;4938520;29;20043;-77
2022/03/06 06:05:59;;;;;;;15.68;5.97;;;;;;;19.08;22.56;99813.81;4950198;29;20092;-80
2022/03/06 06:08:31;;;;;;;14.30;6.60;;;;;;;19.15;22.00;99811.75;4911492;29;20383;-78
2022/03/06 06:10:57;;;;;;;15.48;6.68;;;;;;;19.23;21.28;99821.94;4931659;29;20094;-78
2022/03/06 06:21:04;;;;;;;13.20;6.82;;;;;;;20.05;20.46;99831.44;4902208;29;20055;-78
2022/03/06 06:23:31;;;;;;;12.48;6.85;;;;;;;20.10;19.97;99820.63;4921132;29;20509;-79
2022/03/06 06:26:31;;;;;;;11.15;6.03;;;;;;;20.10;19.64;99821.50;4937467;29;20039;-80
2022/03/06 06:29:00;;;;;;;14.30;6.70;;;;;;;19.97;19.76;99786.06;4902995;29;20375;-78
2022/03/06 06:31:40;;;;;;;14.20;6.78;;;;;;;20.55;19.33;99816.66;4898221;29;20043;-79
2022/03/06 06:34:13;;;;;;;11.00;6.00;;;;;;;21.15;19.05;99803.97;4944053;29;20046;-80
2022/03/06 06:36:39;;;;;;;17.45;7.13;;;;;;;21.28;18.48;99791.81;4926146;29;20051;-78
2022/03/06 06:39:05;;;;;;;13.23;6.25;;;;;;;21.48;18.33;99795.19;4930700;29;20436;-81
2022/03/06 06:41:34;;;;;;;13.45;5.90;;;;;;;21.75;17.87;99805.19;4930826;29;20086;-79
2022/03/06 06:43:59;;;;;;;18.50;6.72;;;;;;;21.76;17.71;99793.66;4931352;29;20036;-79
2022/03/06 06:46:25;;;;;;;15.52;7.38;;;;;;;21.51;17.95;99803.78;4934143;29;20053;-76
2022/03/06 06:49:00;;;;;;;16.35;6.28;;;;;;;21.99;17.76;99759.75;4955097;29;20138;-79
2022/03/06 06:51:34;;;;;;;15.50;5.85;;;;;;;22.50;17.03;99792.16;4937327;29;20042;-77
2022/03/06 06:54:02;;;;;;;14.82;5.63;;;;;;;22.86;17.06;99758.22;4932640;29;20084;-78
2022/03/06 06:56:31;;;;;;;12.05;5.78;;;;;;;23.76;16.50;99766.78;4956860;29;20047;-79
2022/03/06 06:58:57;;;;;;;11.98;5.82;;;;;;;24.14;15.99;99756.44;4949645;29;20168;-79
2022/03/06 07:01:25;;;;;;;12.65;5.43;;;;;;;24.53;15.78;99768.00;4928815;29;20047;-77
2022/03/06 07:04:02;;;;;;;11.88;5.35;;;;;;;24.66;15.13;99763.53;4971237;29;20045;-78
2022/03/06 07:06:28;;;;;;;10.38;4.63;;;;;;;24.89;15.27;99769.13;4952275;29;20047;-77
2022/03/06 07:08:54;;;;;;;13.75;5.38;;;;;;;24.90;15.25;99765.50;4928844;29;20055;-79
2022/03/06 07:11:22;;;;;;;12.40;5.22;;;;;;;24.67;14.92;99733.34;4955210;29;20039;-79
2022/03/06 07:14:12;;;;;;;15.25;5.53;;;;;;;25.51;14.94;99754.16;4935765;29;20508;-79
2022/03/06 07:16:45;;;;;;;16.25;4.43;;;;;;;25.82;14.62;99685.31;4958352;29;20074;-78
2022/03/06 07:19:35;;;;;;;9.85;3.92;;;;;;;26.43;14.07;99678.13;4891326;29;20130;-77
2022/03/06 07:22:07;;;;;;;8.30;4.10;;;;;;;27.47;14.19;99684.19;4896219;29;20044;-79
2022/03/06 07:24:33;;;;;;;12.20;4.03;;;;;;;28.17;13.81;99693.66;4879898;29;20167;-82
2022/03/06 07:27:15;;;;;;;10.55;3.58;;;;;;;29.13;13.43;99730.97;4893942;29;20044;-82
2022/03/06 07:30:34;;;;;;;7.95;3.20;;;;;;;29.90;12.86;99648.19;4907542;29;20055;-79
2022/03/06 07:33:20;;;;;;;5.22;2.72;;;;;;;30.87;12.33;99653.47;4753849;29;20150;-80
2022/03/06 07:36:12;;;;;;;7.75;2.45;;;;;;;31.12;12.20;99731.69;4774248;29;20085;-79
2022/03/06 07:39:03;;;;;;;11.20;2.50;;;;;;;30.73;11.81;99641.38;4863369;29;20056;-79
2022/03/06 07:42:02;;;;;;;5.37;2.77;;;;;;;30.73;11.29;99654.81;4891418;29;20061;-78
2022/03/06 07:44:42;;;;;;;21.02;3.03;;;;;;;30.78;11.45;99725.84;4899795;29;20429;-80
2022/03/06 07:47:28;;;;;;;6.88;2.28;;;;;;;29.88;11.38;99674.28;4896123;29;20045;-79
2022/03/06 07:50:03;;;;;;;4.88;2.20;;;;;;;28.48;11.14;99651.75;4883866;29;20256;-80
2022/03/06 07:52:33;;;;;;;10.30;2.72;;;;;;;28.19;11.94;99649.75;4894279;29;20051;-79
2022/03/06 07:55:28;;;;;;;11.50;2.20;;;;;;;28.54;11.89;99672.66;4885708;29;20055;-80
2022/03/06 07:57:54;;;;;;;10.30;3.03;;;;;;;28.66;11.51;99704.66;4878660;29;20044;-79
2022/03/06 08:00:29;;;;;;;5.80;3.53;;;;;;;28.50;11.08;99715.84;4899563;29;20518;-81
2022/03/06 08:07:22;;;;;;;4.90;2.40;;;;;;;28.05;12.19;99706.22;4840735;29;20061;-79
2022/03/06 08:10:04;;;;;;;;;;;;;;;;;;;;;
2022/03/06 08:13:06;;;;;;;6.07;1.90;;;;;;;28.68;11.57;99638.47;4898276;29;20080;-77
2022/03/06 08:15:48;;;;;;;4.32;1.90;;;;;;;29.74;10.81;99630.81;4901780;29;20188;-80
2022/03/06 08:18:20;;;;;;;4.53;2.10;;;;;;;29.95;10.72;99682.59;4921859;29;20042;-81
2022/03/06 08:21:19;;;;;;;5.68;2.25;;;;;;;29.89;10.97;99678.66;4915316;29;20048;-81
2022/03/06 08:24:07;;;;;;;5.88;2.60;;;;;;;30.02;10.90;99606.84;4934950;29;20075;-81
2022/03/06 08:27:18;;;;;;;3.65;2.30;;;;;;;30.84;10.36;99608.94;4906410;29;20150;-78
2022/03/06 08:34:56;;;;;;;;;;;;;;;;;;;;;
2022/03/06 08:37:52;;;;;;;26.70;3.40;;;;;;;29.36;10.65;99592.31;4946173;29;20103;-80
2022/03/06 08:41:18;;;;;;;;;;;;;;;;;;;;;
2022/03/06 08:48:03;;;;;;;6.45;2.17;;;;;;;29.48;10.32;99582.31;4903288;29;20099;-79
2022/03/06 08:51:27;;;;;;;4.65;1.85;;;;;;;29.95;10.34;99578.03;4909433;29;20040;-80
2022/03/06 08:54:09;;;;;;;;;;;;;;;;;;;;;
2022/03/06 08:56:55;;;;;;;5.30;1.80;;;;;;;32.22;10.03;99541.44;4922126;29;20104;-81
2022/03/06 08:59:35;;;;;;;3.85;1.92;;;;;;;32.58;9.45;99553.91;4932909;29;20066;-79
2022/03/06 09:02:27;;;;;;;4.13;1.75;;;;;;;31.67;9.34;99518.38;4929575;29;20043;-81
2022/03/06 09:05:06;;;;;;;4.18;1.90;;;;;;;32.34;9.69;99606.63;4919077;29;20206;-81
2022/03/06 09:07:33;;;;;;;4.22;1.92;;;;;;;31.17;9.75;99557.47;4942047;29;20041;-79
2022/03/06 09:10:12;;;;;;;6.45;2.10;;;;;;;30.28;9.51;99602.66;4928169;29;20058;-79
2022/03/06 09:12:41;;;;;;;7.77;2.00;;;;;;;29.83;10.22;99601.47;4926202;29;20039;-79
2022/03/06 09:15:16;;;;;;;9.55;2.30;;;;;;;30.00;10.46;99579.31;4938902;29;20457;-79
2022/03/06 09:17:45;;;;;;;7.82;1.85;;;;;;;30.74;10.32;99579.47;4915885;29;20055;-79
2022/03/06 09:20:12;;;;;;;4.55;1.90;;;;;;;31.27;9.65;99557.38;4941198;29;20060;-79
2022/03/06 09:22:40;;;;;;;4.95;2.25;;;;;;;30.95;9.92;99554.19;4921843;29;20046;-80
2022/03/06 09:25:09;;;;;;;13.32;2.22;;;;;;;31.24;9.60;99559.38;4953623;29;20112;-80
2022/03/06 09:27:36;;;;;;;7.30;2.00;;;;;;;31.18;8.83;99538.50;4920544;29;20047;-81
2022/03/06 09:30:05;;;;;;;6.50;2.00;;;;;;;30.47;9.27;99534.66;4923405;29;20058;-82
2022/03/06 09:32:31;;;;;;;3.00;2.08;;;;;;;30.90;10.12;99525.09;4938451;29;20139;-80
2022/03/06 09:37:55;;;;;;;3.45;2.40;;;;;;;31.21;10.11;99524.78;4937716;29;20472;-78
2022/03/06 09:40:45;;;;;;;3.40;2.20;;;;;;;31.87;9.84;99521.75;4952953;28;20043;-80
2022/03/06 09:43:18;;;;;;;6.10;2.20;;;;;;;31.58;9.49;99540.84;4924336;29;20051;-81
2022/03/06 09:45:55;;;;;;;10.27;2.20;;;;;;;31.55;9.94;99564.34;4918922;29;20043;-80
2022/03/06 09:48:21;;;;;;;4.90;1.90;;;;;;;30.82;9.77;99556.41;4917691;29;20142;-80
2022/03/06 09:50:47;;;;;;;3.05;1.95;;;;;;;31.30;9.35;99565.13;4930979;29;20050;-80
2022/03/06 09:53:27;;;;;;;4.15;1.83;;;;;;;31.65;9.50;99549.97;4901775;29;20054;-81
2022/03/06 09:55:53;;;;;;;6.07;2.20;;;;;;;31.14;9.45;99518.31;4948431;29;20043;-80
2022/03/06 09:58:23;;;;;;;5.03;2.25;;;;;;;31.64;9.46;99556.38;4932463;29;20047;-80
2022/03/06 10:00:50;;;;;;;5.68;2.30;;;;;;;31.23;9.32;99519.22;4950475;29;20038;-81
2022/03/06 10:03:30;;;;;;;8.50;2.30;;;;;;;31.43;9.65;99556.69;4954003;29;20059;-79
2022/03/06 10:06:28;;;;;;;7.40;2.45;;;;;;;30.82;9.06;99559.91;4953958;29;20087;-79
2022/03/06 10:09:07;;;;;;;5.30;1.63;;;;;;;30.25;9.75;99543.94;4935435;29;20074;-80
2022/03/06 10:12:17;;;;;;;9.00;2.15;;;;;;;30.54;9.86;99500.88;4935324;29;20047;-80
2022/03/06 10:14:55;;;;;;;3.58;1.90;;;;;;;28.91;9.81;99502.59;4925911;29;20054;-78
2022/03/06 10:17:41;;;;;;;7.55;2.00;;;;;;;25.40;10.53;99467.31;4936002;29;20050;-82
2022/03/06 10:20:28;;;;;;;7.90;2.08;;;;;;;23.29;11.22;99534.44;4949448;29;20121;-81
2022/03/06 10:22:54;;;;;;;6.38;1.83;;;;;;;21.13;12.42;99509.59;4917990;29;20058;-82
2022/03/06 10:26:01;;;;;;;3.35;1.80;;;;;;;19.53;13.26;99481.13;4934224;29;20046;-82
2022/03/06 10:28:38;;;;;;;3.70;1.83;;;;;;;18.56;13.83;99447.16;4917539;29;20051;-81
2022/03/06 10:31:07;;;;;;;3.40;1.88;;;;;;;18.05;14.11;99527.56;4934807;29;20075;-84
2022/03/06 10:33:33;;;;;;;3.58;2.10;;;;;;;17.16;14.58;99522.50;4935782;29;20510;-82
2022/03/06 10:36:02;;;;;;;6.07;1.77;;;;;;;16.41;15.17;99527.09;4926142;29;20513;-80
2022/03/06 10:38:33;;;;;;;6.35;2.10;;;;;;;15.55;15.79;99493.41;4924784;29;20047;-82
2022/03/06 10:41:18;;;;;;;4.78;3.10;;;;;;;14.56;16.17;99465.97;4901232;29;20162;-78
2022/03/06 10:43:44;;;;;;;4.18;1.58;;;;;;;13.89;16.82;99511.50;4932738;29;20055;-81
2022/03/06 10:46:23;;;;;;;4.97;1.58;;;;;;;12.80;17.55;99460.16;4913126;29;20048;-81
2022/03/06 10:48:57;;;;;;;4.30;1.70;;;;;;;12.58;17.81;99504.19;4931115;29;20134;-80
2022/03/06 10:51:29;;;;;;;13.20;2.65;;;;;;;12.28;18.07;99505.69;4932394;29;20051;-82
2022/03/06 10:54:23;;;;;;;8.02;2.72;;;;;;;11.93;18.61;99492.44;4935108;29;20043;-81
2022/03/06 10:57:23;;;;;;;15.82;2.90;;;;;;;10.48;18.62;99418.44;4933672;29;20123;-80
2022/03/06 11:00:24;;;;;;;4.97;2.30;;;;;;;9.49;19.31;99415.31;4944106;29;20043;-81
2022/03/06 11:03:17;;;;;;;4.68;1.83;;;;;;;8.86;20.68;99434.94;4927289;29;20047;-79
2022/03/06 11:05:48;;;;;;;5.57;1.80;;;;;;;8.82;21.24;99492.94;4922501;29;20067;-80
2022/03/06 11:08:34;;;;;;;9.23;2.78;;;;;;;8.23;21.77;99441.34;4947864;29;20075;-83
2022/03/06 11:11:15;;;;;;;6.82;1.67;;;;;;;7.85;22.42;99432.00;4931848;29;20043;-80
2022/03/06 11:13:46;;;;;;;5.45;1.67;;;;;;;7.98;22.63;99466.53;4922754;29;20039;-79
2022/03/06 11:16:20;;;;;;;4.00;1.83;;;;;;;8.19;23.08;99462.13;4933527;29;20042;-78
2022/03/06 11:18:53;;;;;;;17.65;2.05;;;;;;;7.66;23.26;99330.19;4932903;29;20136;-80
2022/03/06 11:21:24;;;;;;;11.82;1.65;;;;;;;8.10;23.02;99383.53;4916026;29;20044;-79
2022/03/06 11:23:58;;;;;;;4.60;1.60;;;;;;;8.37;22.89;99391.16;4932833;29;20051;-81
2022/03/06 11:27:08;;;;;;;5.32;1.90;;;;;;;8.63;22.99;99445.47;4933910;29;20078;-82
2022/03/06 11:29:56;;;;;;;6.35;1.70;;;;;;;7.96;22.89;99445.78;4921588;28;20451;-79
2022/03/06 11:32:31;;;;;;;6.70;1.80;;;;;;;7.19;23.51;99417.50;4919508;29;20047;-80
2022/03/06 11:35:10;;;;;;;2.80;1.30;;;;;;;6.82;23.43;99427.88;4937362;29;20050;-80
2022/03/06 11:37:55;;;;;;;15.55;2.20;;;;;;;6.21;24.32;99425.19;4919742;29;20513;-82
2022/03/06 11:40:45;;;;;;;14.40;2.08;;;;;;;5.71;25.01;99427.53;4938961;29;20042;-79
2022/03/06 11:44:16;;;;;;;6.47;1.60;;;;;;;4.27;25.90;99283.88;4955428;29;20054;-80
2022/03/06 11:46:39;;;;;;;6.28;2.95;;;;;;;4.70;26.55;99358.97;4941162;29;20688;-80
2022/03/06 11:49:09;;;;;;;7.78;1.80;;;;;;;4.98;26.48;99423.59;4950522;29;20039;-80
2022/03/06 11:51:39;;;;;;;8.35;1.80;;;;;;;4.59;26.72;99376.91;4934413;29;20496;-81
2022/03/06 11:54:14;;;;;;;5.55;1.85;;;;;;;4.85;27.06;99411.47;4918923;29;20050;-80
2022/03/06 11:56:53;;;;;;;6.00;2.05;;;;;;;4.80;27.26;99376.22;4919303;29;20314;-81
2022/03/06 11:59:44;;;;;;;2.85;1.50;;;;;;;4.78;27.05;99340.97;4917591;29;20095;-80
2022/03/06 12:02:18;;;;;;;3.17;1.50;;;;;;;5.39;27.07;99402.44;4930292;29;20382;-79
2022/03/06 12:04:53;;;;;;;5.05;1.73;;;;;;;4.64;27.49;99271.28;4934432;29;20054;-78
2022/03/06 12:07:21;;;;;;;4.68;1.77;;;;;;;5.04;27.49;99327.41;4934943;29;20046;-80
2022/03/06 12:09:48;;;;;;;9.00;1.73;;;;;;;5.34;26.95;99360.25;4935093;29;20539;-81
2022/03/06 12:12:16;;;;;;;7.43;2.20;;;;;;;5.34;27.17;99361.94;4921977;29;20050;-81
2022/03/06 12:14:43;;;;;;;7.50;2.15;;;;;;;5.32;26.83;99398.06;4951074;29;20043;-81
2022/03/06 12:17:11;;;;;;;5.40;2.05;;;;;;;5.08;26.99;99401.34;4951030;29;20047;-79
2022/03/06 12:19:43;;;;;;;4.95;2.20;;;;;;;4.98;27.49;99390.09;4950564;29;20094;-79
2022/03/06 12:22:13;;;;;;;5.57;1.63;;;;;;;5.03;27.48;99393.56;4933359;29;20138;-78
2022/03/06 12:24:44;;;;;;;4.20;1.58;;;;;;;5.07;27.84;99390.16;4950763;29;20441;-79